sensor_id;sensor_type;location;lat;lon;timestamp;P1;durP1;ratioP1;P2;durP2;ratioP2
71696;SDS011;68167;59.120;37.898;2023-09-12T00:01:55;15.73;;;10.00;;
71696;SDS011;68167;59.120;37.898;2023-09-12T00:04:21;14.60;;;10.27;;
71696;SDS011;68167;59.120;37.898;2023-09-12T00:06:47;16.80;;;10.70;;
71696;SDS011;68167;59.120;37.898;2023-09-12T00:09:14;13.57;;;10.37;;
71696;SDS011;68167;59.120;37.898;2023-09-12T00:11:40;15.63;;;9.97;;
71696;SDS011;68167;59.120;37.898;2023-09-12T00:14:08;14.67;;;10.33;;
71696;SDS011;68167;59.120;37.898;2023-09-12T00:16:34;16.73;;;10.77;;
71696;SDS011;68167;59.120;37.898;2023-09-12T00:19:01;14.97;;;10.47;;
71696;SDS011;68167;59.120;37.898;2023-09-12T00:21:27;16.23;;;11.17;;
71696;SDS011;68167;59.120;37.898;2023-09-12T00:23:53;17.03;;;10.93;;
71696;SDS011;68167;59.120;37.898;2023-09-12T00:26:19;19.13;;;10.97;;
71696;SDS011;68167;59.120;37.898;2023-09-12T00:28:47;14.93;;;10.63;;
71696;SDS011;68167;59.120;37.898;2023-09-12T00:31:13;14.90;;;10.27;;
71696;SDS011;68167;59.120;37.898;2023-09-12T00:33:40;17.00;;;11.50;;
71696;SDS011;68167;59.120;37.898;2023-09-12T00:36:06;14.63;;;10.67;;
71696;SDS011;68167;59.120;37.898;2023-09-12T00:38:32;14.10;;;10.03;;
71696;SDS011;68167;59.120;37.898;2023-09-12T00:40:58;15.43;;;11.03;;
71696;SDS011;68167;59.120;37.898;2023-09-12T00:43:25;17.80;;;11.77;;
71696;SDS011;68167;59.120;37.898;2023-09-12T00:45:51;14.13;;;10.30;;
71696;SDS011;68167;59.120;37.898;2023-09-12T00:48:18;16.27;;;10.43;;
71696;SDS011;68167;59.120;37.898;2023-09-12T00:50:45;17.67;;;11.20;;
71696;SDS011;68167;59.120;37.898;2023-09-12T00:53:13;15.47;;;11.13;;
71696;SDS011;68167;59.120;37.898;2023-09-12T00:55:44;19.43;;;10.67;;
71696;SDS011;68167;59.120;37.898;2023-09-12T00:58:15;15.60;;;11.13;;
71696;SDS011;68167;59.120;37.898;2023-09-12T01:00:41;18.60;;;12.13;;
71696;SDS011;68167;59.120;37.898;2023-09-12T01:03:08;17.77;;;11.63;;
71696;SDS011;68167;59.120;37.898;2023-09-12T01:05:35;17.97;;;11.73;;
71696;SDS011;68167;59.120;37.898;2023-09-12T01:08:01;19.47;;;12.63;;
71696;SDS011;68167;59.120;37.898;2023-09-12T01:10:29;17.67;;;11.47;;
71696;SDS011;68167;59.120;37.898;2023-09-12T01:12:55;20.27;;;12.40;;
71696;SDS011;68167;59.120;37.898;2023-09-12T01:15:22;16.97;;;11.97;;
71696;SDS011;68167;59.120;37.898;2023-09-12T01:17:48;19.30;;;12.23;;
71696;SDS011;68167;59.120;37.898;2023-09-12T01:20:16;18.23;;;12.40;;
71696;SDS011;68167;59.120;37.898;2023-09-12T01:23:08;19.27;;;12.60;;
71696;SDS011;68167;59.120;37.898;2023-09-12T01:28:18;21.60;;;13.37;;
71696;SDS011;68167;59.120;37.898;2023-09-12T01:30:49;22.53;;;13.93;;
71696;SDS011;68167;59.120;37.898;2023-09-12T01:33:18;21.70;;;13.17;;
71696;SDS011;68167;59.120;37.898;2023-09-12T01:35:45;21.03;;;13.57;;
71696;SDS011;68167;59.120;37.898;2023-09-12T01:38:13;24.83;;;13.47;;
71696;SDS011;68167;59.120;37.898;2023-09-12T01:40:45;21.07;;;12.47;;
71696;SDS011;68167;59.120;37.898;2023-09-12T01:43:15;21.33;;;13.37;;
71696;SDS011;68167;59.120;37.898;2023-09-12T01:45:44;19.40;;;12.60;;
71696;SDS011;68167;59.120;37.898;2023-09-12T01:48:13;20.93;;;13.50;;
71696;SDS011;68167;59.120;37.898;2023-09-12T01:50:45;21.30;;;13.83;;
71696;SDS011;68167;59.120;37.898;2023-09-12T01:53:12;20.83;;;13.20;;
71696;SDS011;68167;59.120;37.898;2023-09-12T01:55:42;17.70;;;12.37;;
71696;SDS011;68167;59.120;37.898;2023-09-12T01:58:13;20.20;;;12.37;;
71696;SDS011;68167;59.120;37.898;2023-09-12T02:00:40;21.17;;;12.57;;
71696;SDS011;68167;59.120;37.898;2023-09-12T02:03:07;22.30;;;12.90;;
71696;SDS011;68167;59.120;37.898;2023-09-12T02:05:34;19.87;;;13.03;;
71696;SDS011;68167;59.120;37.898;2023-09-12T02:08:03;18.57;;;11.97;;
71696;SDS011;68167;59.120;37.898;2023-09-12T02:10:31;18.07;;;12.17;;
71696;SDS011;68167;59.120;37.898;2023-09-12T02:12:58;18.80;;;12.27;;
71696;SDS011;68167;59.120;37.898;2023-09-12T02:15:25;21.63;;;13.40;;
71696;SDS011;68167;59.120;37.898;2023-09-12T02:17:51;23.83;;;12.87;;
71696;SDS011;68167;59.120;37.898;2023-09-12T02:20:18;21.40;;;12.57;;
71696;SDS011;68167;59.120;37.898;2023-09-12T02:22:48;21.27;;;12.90;;
71696;SDS011;68167;59.120;37.898;2023-09-12T02:25:14;20.27;;;12.30;;
71696;SDS011;68167;59.120;37.898;2023-09-12T02:27:41;21.20;;;12.80;;
71696;SDS011;68167;59.120;37.898;2023-09-12T02:30:08;19.93;;;12.47;;
71696;SDS011;68167;59.120;37.898;2023-09-12T02:32:36;18.43;;;12.17;;
71696;SDS011;68167;59.120;37.898;2023-09-12T02:35:03;20.30;;;13.30;;
71696;SDS011;68167;59.120;37.898;2023-09-12T02:37:31;22.10;;;13.13;;
71696;SDS011;68167;59.120;37.898;2023-09-12T02:39:58;22.57;;;13.27;;
71696;SDS011;68167;59.120;37.898;2023-09-12T02:42:24;19.57;;;12.97;;
71696;SDS011;68167;59.120;37.898;2023-09-12T02:44:51;23.80;;;14.03;;
71696;SDS011;68167;59.120;37.898;2023-09-12T02:47:18;19.80;;;13.23;;
71696;SDS011;68167;59.120;37.898;2023-09-12T02:49:45;21.20;;;13.63;;
71696;SDS011;68167;59.120;37.898;2023-09-12T02:52:12;20.43;;;13.33;;
71696;SDS011;68167;59.120;37.898;2023-09-12T02:54:39;20.37;;;12.87;;
71696;SDS011;68167;59.120;37.898;2023-09-12T02:57:05;21.70;;;13.07;;
71696;SDS011;68167;59.120;37.898;2023-09-12T02:59:32;22.03;;;13.47;;
71696;SDS011;68167;59.120;37.898;2023-09-12T03:01:58;22.03;;;13.33;;
71696;SDS011;68167;59.120;37.898;2023-09-12T03:04:25;24.80;;;14.27;;
71696;SDS011;68167;59.120;37.898;2023-09-12T03:06:54;19.50;;;12.57;;
71696;SDS011;68167;59.120;37.898;2023-09-12T03:09:21;18.63;;;13.00;;
71696;SDS011;68167;59.120;37.898;2023-09-12T03:11:49;20.37;;;12.90;;
71696;SDS011;68167;59.120;37.898;2023-09-12T03:14:16;20.93;;;13.27;;
71696;SDS011;68167;59.120;37.898;2023-09-12T03:16:43;23.17;;;12.67;;
71696;SDS011;68167;59.120;37.898;2023-09-12T03:19:10;23.83;;;13.83;;
71696;SDS011;68167;59.120;37.898;2023-09-12T03:21:36;22.53;;;13.80;;
71696;SDS011;68167;59.120;37.898;2023-09-12T03:24:07;19.63;;;13.33;;
71696;SDS011;68167;59.120;37.898;2023-09-12T03:26:35;24.53;;;14.03;;
71696;SDS011;68167;59.120;37.898;2023-09-12T03:29:03;24.57;;;13.67;;
71696;SDS011;68167;59.120;37.898;2023-09-12T03:31:30;18.63;;;12.63;;
71696;SDS011;68167;59.120;37.898;2023-09-12T03:33:57;23.90;;;14.73;;
71696;SDS011;68167;59.120;37.898;2023-09-12T03:36:24;21.80;;;13.80;;
71696;SDS011;68167;59.120;37.898;2023-09-12T03:38:51;21.70;;;13.23;;
71696;SDS011;68167;59.120;37.898;2023-09-12T03:41:18;20.83;;;13.53;;
71696;SDS011;68167;59.120;37.898;2023-09-12T03:43:45;23.20;;;13.33;;
71696;SDS011;68167;59.120;37.898;2023-09-12T03:46:12;21.47;;;14.03;;
71696;SDS011;68167;59.120;37.898;2023-09-12T03:48:38;21.40;;;13.17;;
71696;SDS011;68167;59.120;37.898;2023-09-12T03:51:05;20.50;;;13.27;;
71696;SDS011;68167;59.120;37.898;2023-09-12T03:53:31;20.80;;;13.40;;
71696;SDS011;68167;59.120;37.898;2023-09-12T03:55:58;24.83;;;14.00;;
71696;SDS011;68167;59.120;37.898;2023-09-12T03:58:26;20.13;;;12.60;;
71696;SDS011;68167;59.120;37.898;2023-09-12T04:00:52;20.60;;;12.83;;
71696;SDS011;68167;59.120;37.898;2023-09-12T04:03:19;22.13;;;12.83;;
71696;SDS011;68167;59.120;37.898;2023-09-12T04:05:46;17.93;;;12.37;;
71696;SDS011;68167;59.120;37.898;2023-09-12T04:08:13;20.80;;;13.00;;
71696;SDS011;68167;59.120;37.898;2023-09-12T04:10:40;27.73;;;16.07;;
71696;SDS011;68167;59.120;37.898;2023-09-12T04:13:07;22.13;;;12.73;;
71696;SDS011;68167;59.120;37.898;2023-09-12T04:15:33;20.57;;;13.57;;
71696;SDS011;68167;59.120;37.898;2023-09-12T04:18:00;30.33;;;17.73;;
71696;SDS011;68167;59.120;37.898;2023-09-12T04:20:27;24.07;;;13.23;;
71696;SDS011;68167;59.120;37.898;2023-09-12T04:22:53;20.40;;;13.03;;
71696;SDS011;68167;59.120;37.898;2023-09-12T04:25:20;20.70;;;13.27;;
71696;SDS011;68167;59.120;37.898;2023-09-12T04:27:46;21.13;;;12.17;;
71696;SDS011;68167;59.120;37.898;2023-09-12T04:30:13;18.87;;;12.63;;
71696;SDS011;68167;59.120;37.898;2023-09-12T04:32:40;23.17;;;13.00;;
71696;SDS011;68167;59.120;37.898;2023-09-12T04:35:06;22.83;;;13.20;;
71696;SDS011;68167;59.120;37.898;2023-09-12T04:37:33;20.53;;;12.63;;
71696;SDS011;68167;59.120;37.898;2023-09-12T04:40:00;20.73;;;13.63;;
71696;SDS011;68167;59.120;37.898;2023-09-12T04:42:27;23.17;;;13.13;;
71696;SDS011;68167;59.120;37.898;2023-09-12T04:44:53;17.97;;;12.03;;
71696;SDS011;68167;59.120;37.898;2023-09-12T04:47:20;22.60;;;13.57;;
71696;SDS011;68167;59.120;37.898;2023-09-12T04:49:47;20.67;;;12.60;;
71696;SDS011;68167;59.120;37.898;2023-09-12T04:52:13;27.70;;;14.47;;
71696;SDS011;68167;59.120;37.898;2023-09-12T04:54:40;22.20;;;13.37;;
71696;SDS011;68167;59.120;37.898;2023-09-12T04:57:07;21.93;;;13.33;;
71696;SDS011;68167;59.120;37.898;2023-09-12T04:59:34;21.80;;;13.47;;
71696;SDS011;68167;59.120;37.898;2023-09-12T05:02:01;19.23;;;12.97;;
71696;SDS011;68167;59.120;37.898;2023-09-12T05:04:28;24.27;;;14.07;;
71696;SDS011;68167;59.120;37.898;2023-09-12T05:06:54;21.83;;;13.43;;
71696;SDS011;68167;59.120;37.898;2023-09-12T05:09:21;22.57;;;14.20;;
71696;SDS011;68167;59.120;37.898;2023-09-12T05:11:47;26.23;;;14.67;;
71696;SDS011;68167;59.120;37.898;2023-09-12T05:14:14;24.97;;;14.33;;
71696;SDS011;68167;59.120;37.898;2023-09-12T05:16:41;26.90;;;16.13;;
71696;SDS011;68167;59.120;37.898;2023-09-12T05:19:08;23.83;;;15.23;;
71696;SDS011;68167;59.120;37.898;2023-09-12T05:21:34;20.70;;;13.83;;
71696;SDS011;68167;59.120;37.898;2023-09-12T05:24:01;25.10;;;15.57;;
71696;SDS011;68167;59.120;37.898;2023-09-12T05:26:28;32.03;;;15.57;;
71696;SDS011;68167;59.120;37.898;2023-09-12T05:28:54;22.47;;;14.13;;
71696;SDS011;68167;59.120;37.898;2023-09-12T05:31:21;24.30;;;14.60;;
71696;SDS011;68167;59.120;37.898;2023-09-12T05:33:47;24.73;;;14.40;;
71696;SDS011;68167;59.120;37.898;2023-09-12T05:36:15;23.33;;;15.73;;
71696;SDS011;68167;59.120;37.898;2023-09-12T05:38:42;28.93;;;16.07;;
71696;SDS011;68167;59.120;37.898;2023-09-12T05:41:09;25.43;;;15.50;;
71696;SDS011;68167;59.120;37.898;2023-09-12T05:43:36;24.17;;;15.67;;
71696;SDS011;68167;59.120;37.898;2023-09-12T05:46:03;30.23;;;16.97;;
71696;SDS011;68167;59.120;37.898;2023-09-12T05:48:30;26.20;;;16.00;;
71696;SDS011;68167;59.120;37.898;2023-09-12T05:50:56;25.43;;;16.80;;
71696;SDS011;68167;59.120;37.898;2023-09-12T05:53:23;27.00;;;16.43;;
71696;SDS011;68167;59.120;37.898;2023-09-12T05:55:50;28.63;;;16.93;;
71696;SDS011;68167;59.120;37.898;2023-09-12T05:58:17;27.33;;;17.40;;
71696;SDS011;68167;59.120;37.898;2023-09-12T06:00:43;30.13;;;17.07;;
71696;SDS011;68167;59.120;37.898;2023-09-12T06:03:13;25.60;;;16.20;;
71696;SDS011;68167;59.120;37.898;2023-09-12T06:05:41;31.30;;;16.87;;
71696;SDS011;68167;59.120;37.898;2023-09-12T06:08:07;27.13;;;16.73;;
71696;SDS011;68167;59.120;37.898;2023-09-12T06:10:34;26.93;;;16.87;;
71696;SDS011;68167;59.120;37.898;2023-09-12T06:13:01;28.07;;;17.00;;
71696;SDS011;68167;59.120;37.898;2023-09-12T06:15:27;28.03;;;16.73;;
71696;SDS011;68167;59.120;37.898;2023-09-12T06:17:54;24.77;;;15.40;;
71696;SDS011;68167;59.120;37.898;2023-09-12T06:20:20;25.80;;;15.33;;
71696;SDS011;68167;59.120;37.898;2023-09-12T06:22:48;24.27;;;15.70;;
71696;SDS011;68167;59.120;37.898;2023-09-12T06:25:15;24.43;;;15.73;;
71696;SDS011;68167;59.120;37.898;2023-09-12T06:27:41;23.63;;;15.70;;
71696;SDS011;68167;59.120;37.898;2023-09-12T06:30:08;22.27;;;15.10;;
71696;SDS011;68167;59.120;37.898;2023-09-12T06:32:35;22.87;;;14.83;;
71696;SDS011;68167;59.120;37.898;2023-09-12T06:35:02;19.73;;;13.67;;
71696;SDS011;68167;59.120;37.898;2023-09-12T06:37:31;23.33;;;15.03;;
71696;SDS011;68167;59.120;37.898;2023-09-12T06:39:58;24.17;;;14.63;;
71696;SDS011;68167;59.120;37.898;2023-09-12T06:42:24;21.97;;;14.47;;
71696;SDS011;68167;59.120;37.898;2023-09-12T06:44:50;21.80;;;14.77;;
71696;SDS011;68167;59.120;37.898;2023-09-12T06:47:17;21.97;;;14.53;;
71696;SDS011;68167;59.120;37.898;2023-09-12T06:49:43;25.23;;;14.80;;
71696;SDS011;68167;59.120;37.898;2023-09-12T06:52:09;18.80;;;13.67;;
71696;SDS011;68167;59.120;37.898;2023-09-12T06:54:36;21.30;;;13.93;;
71696;SDS011;68167;59.120;37.898;2023-09-12T06:57:02;23.63;;;14.57;;
71696;SDS011;68167;59.120;37.898;2023-09-12T06:59:29;22.87;;;14.03;;
71696;SDS011;68167;59.120;37.898;2023-09-12T07:01:55;19.77;;;13.73;;
71696;SDS011;68167;59.120;37.898;2023-09-12T07:04:21;21.37;;;13.83;;
71696;SDS011;68167;59.120;37.898;2023-09-12T07:06:48;19.87;;;13.87;;
71696;SDS011;68167;59.120;37.898;2023-09-12T07:09:14;20.23;;;12.30;;
71696;SDS011;68167;59.120;37.898;2023-09-12T07:11:43;18.07;;;13.27;;
71696;SDS011;68167;59.120;37.898;2023-09-12T07:14:10;19.37;;;12.90;;
71696;SDS011;68167;59.120;37.898;2023-09-12T07:16:36;18.67;;;13.23;;
71696;SDS011;68167;59.120;37.898;2023-09-12T07:19:03;20.13;;;13.57;;
71696;SDS011;68167;59.120;37.898;2023-09-12T07:21:30;18.67;;;12.83;;
71696;SDS011;68167;59.120;37.898;2023-09-12T07:23:58;16.83;;;12.70;;
71696;SDS011;68167;59.120;37.898;2023-09-12T07:26:24;18.67;;;13.63;;
71696;SDS011;68167;59.120;37.898;2023-09-12T07:28:50;18.13;;;13.37;;
71696;SDS011;68167;59.120;37.898;2023-09-12T07:31:17;18.27;;;13.50;;
71696;SDS011;68167;59.120;37.898;2023-09-12T07:33:47;18.37;;;12.83;;
71696;SDS011;68167;59.120;37.898;2023-09-12T07:36:13;14.47;;;11.03;;
71696;SDS011;68167;59.120;37.898;2023-09-12T07:38:40;21.50;;;12.20;;
71696;SDS011;68167;59.120;37.898;2023-09-12T07:41:07;18.87;;;11.73;;
71696;SDS011;68167;59.120;37.898;2023-09-12T07:43:33;15.13;;;11.60;;
71696;SDS011;68167;59.120;37.898;2023-09-12T07:46:00;16.43;;;12.67;;
71696;SDS011;68167;59.120;37.898;2023-09-12T07:48:29;17.10;;;12.20;;
71696;SDS011;68167;59.120;37.898;2023-09-12T07:50:55;18.03;;;13.30;;
71696;SDS011;68167;59.120;37.898;2023-09-12T07:53:21;15.60;;;10.93;;
71696;SDS011;68167;59.120;37.898;2023-09-12T07:55:48;17.83;;;11.50;;
71696;SDS011;68167;59.120;37.898;2023-09-12T07:58:15;17.77;;;12.53;;
71696;SDS011;68167;59.120;37.898;2023-09-12T08:00:45;15.60;;;11.73;;
71696;SDS011;68167;59.120;37.898;2023-09-12T08:03:12;16.03;;;12.07;;
71696;SDS011;68167;59.120;37.898;2023-09-12T08:05:40;16.57;;;11.93;;
71696;SDS011;68167;59.120;37.898;2023-09-12T08:08:06;15.97;;;12.23;;
71696;SDS011;68167;59.120;37.898;2023-09-12T08:10:32;17.67;;;12.23;;
71696;SDS011;68167;59.120;37.898;2023-09-12T08:12:59;14.80;;;11.93;;
71696;SDS011;68167;59.120;37.898;2023-09-12T08:15:25;16.97;;;13.20;;
71696;SDS011;68167;59.120;37.898;2023-09-12T08:17:51;16.33;;;12.17;;
71696;SDS011;68167;59.120;37.898;2023-09-12T08:20:19;19.00;;;13.27;;
71696;SDS011;68167;59.120;37.898;2023-09-12T08:22:46;16.23;;;12.63;;
71696;SDS011;68167;59.120;37.898;2023-09-12T08:25:14;17.40;;;12.33;;
71696;SDS011;68167;59.120;37.898;2023-09-12T08:27:41;18.47;;;12.30;;
71696;SDS011;68167;59.120;37.898;2023-09-12T08:30:11;14.40;;;11.77;;
71696;SDS011;68167;59.120;37.898;2023-09-12T08:32:39;16.63;;;11.93;;
71696;SDS011;68167;59.120;37.898;2023-09-12T08:35:10;16.57;;;11.70;;
71696;SDS011;68167;59.120;37.898;2023-09-12T08:37:39;16.13;;;11.83;;
71696;SDS011;68167;59.120;37.898;2023-09-12T08:40:07;21.07;;;12.17;;
71696;SDS011;68167;59.120;37.898;2023-09-12T08:42:40;18.37;;;12.70;;
71696;SDS011;68167;59.120;37.898;2023-09-12T08:45:12;16.97;;;11.63;;
71696;SDS011;68167;59.120;37.898;2023-09-12T08:47:44;18.27;;;12.43;;
71696;SDS011;68167;59.120;37.898;2023-09-12T08:50:12;20.60;;;13.00;;
71696;SDS011;68167;59.120;37.898;2023-09-12T08:52:40;18.17;;;12.07;;
71696;SDS011;68167;59.120;37.898;2023-09-12T08:55:10;22.07;;;12.80;;
71696;SDS011;68167;59.120;37.898;2023-09-12T08:57:41;16.27;;;11.43;;
71696;SDS011;68167;59.120;37.898;2023-09-12T09:00:09;16.37;;;12.30;;
71696;SDS011;68167;59.120;37.898;2023-09-12T09:02:40;17.90;;;12.87;;
71696;SDS011;68167;59.120;37.898;2023-09-12T09:05:08;17.73;;;13.30;;
71696;SDS011;68167;59.120;37.898;2023-09-12T09:07:40;18.83;;;12.43;;
71696;SDS011;68167;59.120;37.898;2023-09-12T09:10:09;19.83;;;12.93;;
71696;SDS011;68167;59.120;37.898;2023-09-12T09:12:43;15.60;;;12.43;;
71696;SDS011;68167;59.120;37.898;2023-09-12T09:15:25;17.90;;;12.37;;
71696;SDS011;68167;59.120;37.898;2023-09-12T09:17:56;18.87;;;12.57;;
71696;SDS011;68167;59.120;37.898;2023-09-12T09:20:27;17.43;;;12.43;;
71696;SDS011;68167;59.120;37.898;2023-09-12T09:23:01;17.27;;;12.53;;
71696;SDS011;68167;59.120;37.898;2023-09-12T09:25:32;19.13;;;12.77;;
71696;SDS011;68167;59.120;37.898;2023-09-12T09:28:02;17.07;;;13.40;;
71696;SDS011;68167;59.120;37.898;2023-09-12T09:30:44;16.83;;;13.30;;
71696;SDS011;68167;59.120;37.898;2023-09-12T09:33:12;19.73;;;12.80;;
71696;SDS011;68167;59.120;37.898;2023-09-12T09:35:42;19.20;;;13.63;;
71696;SDS011;68167;59.120;37.898;2023-09-12T09:38:12;17.60;;;12.73;;
71696;SDS011;68167;59.120;37.898;2023-09-12T09:40:43;15.90;;;11.87;;
71696;SDS011;68167;59.120;37.898;2023-09-12T09:43:10;16.40;;;11.90;;
71696;SDS011;68167;59.120;37.898;2023-09-12T09:45:43;17.37;;;12.37;;
71696;SDS011;68167;59.120;37.898;2023-09-12T09:48:18;16.50;;;13.33;;
71696;SDS011;68167;59.120;37.898;2023-09-12T09:50:46;19.03;;;14.00;;
71696;SDS011;68167;59.120;37.898;2023-09-12T09:53:13;16.73;;;12.83;;
71696;SDS011;68167;59.120;37.898;2023-09-12T09:55:39;18.57;;;13.83;;
71696;SDS011;68167;59.120;37.898;2023-09-12T09:58:08;21.93;;;15.00;;
71696;SDS011;68167;59.120;37.898;2023-09-12T10:00:36;20.27;;;15.17;;
71696;SDS011;68167;59.120;37.898;2023-09-12T10:03:05;20.50;;;14.73;;
71696;SDS011;68167;59.120;37.898;2023-09-12T10:05:34;22.90;;;16.00;;
71696;SDS011;68167;59.120;37.898;2023-09-12T10:08:05;21.23;;;15.33;;
71696;SDS011;68167;59.120;37.898;2023-09-12T10:10:35;23.27;;;17.00;;
71696;SDS011;68167;59.120;37.898;2023-09-12T10:13:04;19.67;;;15.60;;
71696;SDS011;68167;59.120;37.898;2023-09-12T10:15:33;28.07;;;16.43;;
71696;SDS011;68167;59.120;37.898;2023-09-12T10:18:04;23.20;;;15.93;;
71696;SDS011;68167;59.120;37.898;2023-09-12T10:20:37;24.50;;;17.23;;
71696;SDS011;68167;59.120;37.898;2023-09-12T10:23:11;23.83;;;16.57;;
71696;SDS011;68167;59.120;37.898;2023-09-12T10:25:46;23.97;;;17.47;;
71696;SDS011;68167;59.120;37.898;2023-09-12T10:28:15;19.97;;;15.90;;
71696;SDS011;68167;59.120;37.898;2023-09-12T10:30:45;21.70;;;16.40;;
71696;SDS011;68167;59.120;37.898;2023-09-12T10:33:12;21.73;;;16.60;;
71696;SDS011;68167;59.120;37.898;2023-09-12T10:35:40;19.77;;;15.03;;
71696;SDS011;68167;59.120;37.898;2023-09-12T10:38:07;18.30;;;14.93;;
71696;SDS011;68167;59.120;37.898;2023-09-12T10:40:35;18.33;;;14.87;;
71696;SDS011;68167;59.120;37.898;2023-09-12T10:43:02;20.17;;;15.90;;
71696;SDS011;68167;59.120;37.898;2023-09-12T10:45:31;20.50;;;16.00;;
71696;SDS011;68167;59.120;37.898;2023-09-12T10:47:59;19.50;;;14.47;;
71696;SDS011;68167;59.120;37.898;2023-09-12T10:50:25;19.97;;;14.93;;
71696;SDS011;68167;59.120;37.898;2023-09-12T10:52:51;22.03;;;15.80;;
71696;SDS011;68167;59.120;37.898;2023-09-12T10:55:18;20.20;;;14.87;;
71696;SDS011;68167;59.120;37.898;2023-09-12T10:58:01;19.20;;;15.70;;
71696;SDS011;68167;59.120;37.898;2023-09-12T11:00:33;18.93;;;15.27;;
71696;SDS011;68167;59.120;37.898;2023-09-12T11:03:35;21.60;;;15.67;;
71696;SDS011;68167;59.120;37.898;2023-09-12T11:05:54;18.20;;;15.80;;
71696;SDS011;68167;59.120;37.898;2023-09-12T11:08:21;20.77;;;16.13;;
71696;SDS011;68167;59.120;37.898;2023-09-12T11:13:46;23.97;;;16.63;;
71696;SDS011;68167;59.120;37.898;2023-09-12T11:16:28;22.80;;;15.90;;
71696;SDS011;68167;59.120;37.898;2023-09-12T11:21:41;17.10;;;15.30;;
71696;SDS011;68167;59.120;37.898;2023-09-12T11:24:09;20.47;;;17.10;;
71696;SDS011;68167;59.120;37.898;2023-09-12T11:26:39;20.83;;;17.13;;
71696;SDS011;68167;59.120;37.898;2023-09-12T11:29:22;22.87;;;17.03;;
71696;SDS011;68167;59.120;37.898;2023-09-12T11:31:55;17.63;;;15.17;;
71696;SDS011;68167;59.120;37.898;2023-09-12T11:34:26;20.73;;;15.83;;
71696;SDS011;68167;59.120;37.898;2023-09-12T11:36:57;17.13;;;14.40;;
71696;SDS011;68167;59.120;37.898;2023-09-12T11:39:30;18.13;;;15.20;;
71696;SDS011;68167;59.120;37.898;2023-09-12T11:41:58;22.73;;;17.70;;
71696;SDS011;68167;59.120;37.898;2023-09-12T11:44:26;19.90;;;17.07;;
71696;SDS011;68167;59.120;37.898;2023-09-12T11:46:53;19.40;;;16.33;;
71696;SDS011;68167;59.120;37.898;2023-09-12T11:49:20;21.30;;;17.67;;
71696;SDS011;68167;59.120;37.898;2023-09-12T11:51:50;20.70;;;18.33;;
71696;SDS011;68167;59.120;37.898;2023-09-12T11:54:19;22.40;;;18.63;;
71696;SDS011;68167;59.120;37.898;2023-09-12T11:56:48;23.50;;;17.53;;
71696;SDS011;68167;59.120;37.898;2023-09-12T11:59:15;20.37;;;17.30;;
71696;SDS011;68167;59.120;37.898;2023-09-12T12:01:45;23.80;;;19.50;;
71696;SDS011;68167;59.120;37.898;2023-09-12T12:04:12;21.47;;;18.37;;
71696;SDS011;68167;59.120;37.898;2023-09-12T12:06:39;25.63;;;18.50;;
71696;SDS011;68167;59.120;37.898;2023-09-12T12:09:06;23.77;;;18.07;;
71696;SDS011;68167;59.120;37.898;2023-09-12T12:11:32;25.80;;;17.60;;
71696;SDS011;68167;59.120;37.898;2023-09-12T12:14:08;22.90;;;17.40;;
71696;SDS011;68167;59.120;37.898;2023-09-12T12:16:39;20.37;;;16.30;;
71696;SDS011;68167;59.120;37.898;2023-09-12T12:19:06;17.93;;;15.90;;
71696;SDS011;68167;59.120;37.898;2023-09-12T12:21:34;22.73;;;17.87;;
71696;SDS011;68167;59.120;37.898;2023-09-12T12:24:01;21.13;;;17.23;;
71696;SDS011;68167;59.120;37.898;2023-09-12T12:26:29;22.77;;;16.83;;
71696;SDS011;68167;59.120;37.898;2023-09-12T12:28:58;26.80;;;17.57;;
71696;SDS011;68167;59.120;37.898;2023-09-12T12:31:26;24.07;;;16.90;;
71696;SDS011;68167;59.120;37.898;2023-09-12T12:33:53;21.80;;;17.20;;
71696;SDS011;68167;59.120;37.898;2023-09-12T12:36:20;21.53;;;17.70;;
71696;SDS011;68167;59.120;37.898;2023-09-12T12:38:48;19.27;;;15.37;;
71696;SDS011;68167;59.120;37.898;2023-09-12T12:41:16;25.17;;;17.17;;
71696;SDS011;68167;59.120;37.898;2023-09-12T12:43:49;20.57;;;16.13;;
71696;SDS011;68167;59.120;37.898;2023-09-12T12:46:20;21.70;;;16.20;;
71696;SDS011;68167;59.120;37.898;2023-09-12T12:48:48;21.70;;;15.13;;
71696;SDS011;68167;59.120;37.898;2023-09-12T12:51:15;20.47;;;16.00;;
71696;SDS011;68167;59.120;37.898;2023-09-12T12:53:53;19.30;;;16.13;;
71696;SDS011;68167;59.120;37.898;2023-09-12T12:56:22;18.23;;;15.00;;
71696;SDS011;68167;59.120;37.898;2023-09-12T12:58:51;20.77;;;15.83;;
71696;SDS011;68167;59.120;37.898;2023-09-12T13:01:19;20.50;;;16.47;;
71696;SDS011;68167;59.120;37.898;2023-09-12T13:03:45;18.57;;;15.30;;
71696;SDS011;68167;59.120;37.898;2023-09-12T13:06:12;17.20;;;15.07;;
71696;SDS011;68167;59.120;37.898;2023-09-12T13:08:41;23.40;;;16.30;;
71696;SDS011;68167;59.120;37.898;2023-09-12T13:11:12;21.47;;;15.00;;
71696;SDS011;68167;59.120;37.898;2023-09-12T13:13:40;19.70;;;15.53;;
71696;SDS011;68167;59.120;37.898;2023-09-12T13:16:12;20.20;;;14.67;;
71696;SDS011;68167;59.120;37.898;2023-09-12T13:18:39;19.37;;;14.20;;
71696;SDS011;68167;59.120;37.898;2023-09-12T13:21:07;21.10;;;15.00;;
71696;SDS011;68167;59.120;37.898;2023-09-12T13:23:36;25.10;;;15.00;;
71696;SDS011;68167;59.120;37.898;2023-09-12T13:26:04;19.10;;;14.37;;
71696;SDS011;68167;59.120;37.898;2023-09-12T13:28:32;19.60;;;15.50;;
71696;SDS011;68167;59.120;37.898;2023-09-12T13:30:59;21.53;;;15.93;;
71696;SDS011;68167;59.120;37.898;2023-09-12T13:33:25;18.43;;;14.60;;
71696;SDS011;68167;59.120;37.898;2023-09-12T13:35:52;22.13;;;16.20;;
71696;SDS011;68167;59.120;37.898;2023-09-12T13:38:18;21.63;;;14.90;;
71696;SDS011;68167;59.120;37.898;2023-09-12T13:40:46;18.90;;;14.37;;
71696;SDS011;68167;59.120;37.898;2023-09-12T13:43:13;19.33;;;14.77;;
71696;SDS011;68167;59.120;37.898;2023-09-12T13:45:40;19.17;;;14.67;;
71696;SDS011;68167;59.120;37.898;2023-09-12T13:48:09;21.77;;;14.07;;
71696;SDS011;68167;59.120;37.898;2023-09-12T13:50:38;20.53;;;15.23;;
71696;SDS011;68167;59.120;37.898;2023-09-12T13:53:05;17.90;;;14.30;;
71696;SDS011;68167;59.120;37.898;2023-09-12T13:55:34;20.93;;;15.73;;
71696;SDS011;68167;59.120;37.898;2023-09-12T13:58:04;18.07;;;14.03;;
71696;SDS011;68167;59.120;37.898;2023-09-12T14:00:33;17.27;;;14.07;;
71696;SDS011;68167;59.120;37.898;2023-09-12T14:03:00;18.97;;;14.90;;
71696;SDS011;68167;59.120;37.898;2023-09-12T14:05:27;16.07;;;14.37;;
71696;SDS011;68167;59.120;37.898;2023-09-12T14:07:53;16.00;;;13.23;;
71696;SDS011;68167;59.120;37.898;2023-09-12T14:10:20;18.57;;;13.93;;
71696;SDS011;68167;59.120;37.898;2023-09-12T14:12:46;16.07;;;13.17;;
71696;SDS011;68167;59.120;37.898;2023-09-12T14:15:13;15.73;;;12.57;;
71696;SDS011;68167;59.120;37.898;2023-09-12T14:17:42;16.50;;;12.70;;
71696;SDS011;68167;59.120;37.898;2023-09-12T14:20:08;15.63;;;13.40;;
71696;SDS011;68167;59.120;37.898;2023-09-12T14:22:36;15.70;;;13.40;;